Nearby METAR Reports

 

KSJC - San Jose, California, USA
Distance from station: NE 14km
Updated: 21/01/2020 12:53
Overcast
Overcast
 Wind from SSE
Wind: SSE 13 km/h
Temperature: 14°C
Dew Point: 8°C
Humidity: 67%
Barometer: 1020 hPa
Clouds: Overcast
Visibility: 16 km
Cloud details: Few Clouds 244 m
Mostly cloudy 1158 m
Overcast 2591 m
2020/01/21 20:53 KSJC 212053Z 16007KT 10SM FEW008 BKN038 OVC085 14/08 A3012 RMK AO2 SLP200 T01440083 58003
KNUQ - Moffett Nas/Mtn, California, USA
Distance from station: N 14km
Updated: 21/11/2019 08:56
NOT Current

 
Barometer: 1011.2 hPa
2019/11/21 16:56 KNUQ 211656Z AUTO A2986 RMK AO2 SLP116 PWINO $
 
KPAO - Palo Alto, California, USA
Distance from station: NNW 23km
Updated: 21/01/2020 12:47
Mostly cloudy
Mostly cloudy
 Wind from SSE
Wind: SSE 19 km/h
Temperature: 14°C
Dew Point: 9°C
Humidity: 72%
Barometer: 1020 hPa
Clouds: Mostly cloudy
Visibility: 16 km
Cloud details: Few Clouds 610 m
Mostly cloudy 1524 m
2020/01/21 20:47 KPAO 212047Z 15010KT 10SM FEW020 BKN050 14/09 A3012
KRHV - San Jose/Reid, California, USA
Distance from station: ENE 19km
Updated: 21/01/2020 12:47
Mostly cloudy
Mostly cloudy
 Wind from SSE
Wind: SSE 19 km/h
Temperature: 15°C
Dew Point: 8°C
Humidity: 63%
Barometer: 1020.3 hPa
Clouds: Mostly cloudy
Visibility: 16 km
Cloud details: Mostly cloudy 1829 m
2020/01/21 20:47 KRHV 212047Z 15010KT 10SM BKN060 15/08 A3013
 
KOAK - Oakland, California, USA
Distance from station: NNW 50km
Updated: 21/01/2020 12:53
Overcast
Overcast
 Wind from S
Wind: S 17 km/h
Temperature: 14°C
Dew Point: 9°C
Humidity: 72%
Barometer: 1020 hPa
Clouds: Overcast
Visibility: 16 km
Cloud details: Overcast 701 m
2020/01/21 20:53 KOAK 212053Z 17009KT 10SM OVC023 14/09 A3012 RMK AO2 SLP198 60000 T01390089 58006
KSQL - San Carlos Airpo, California, USA
Distance from station: NW 34km
Updated: 21/01/2020 12:47
Overcast
Overcast
 Wind from SSE
Wind: SSE 28 km/h
Temperature: 14°C
Dew Point: 10°C
Humidity: 77%
Barometer: 1020 hPa
Clouds: Overcast
Visibility: 16 km
Cloud details: Overcast 640 m
2020/01/21 20:47 KSQL 212047Z 15015KT 10SM OVC021 14/10 A3012
 
KSFO - San Francisco, California, USA
Distance from station: NW 49km
Updated: 21/01/2020 12:56
Overcast
Overcast
 Wind from S
Wind: S 19 km/h
Temperature: 14°C
Dew Point: 9°C
Humidity: 72%
Barometer: 1019.6 hPa
Clouds: Overcast
Visibility: 16 km
Cloud details: Overcast 610 m
2020/01/21 20:56 KSFO 212056Z 17010KT 10SM OVC020 14/09 A3011 RMK AO2 SLP194 T01440089 58009
KE16 - San Martin, California, USA
Distance from station: ESE 43km
Updated: 14/11/2019 01:35
NOT Current
Overcast
Overcast
 Wind from SE
Wind: SE 11 km/h
Temperature: 12°C
Dew Point: 10°C
Humidity: 88%
Barometer: 1017.6 hPa
Clouds: Overcast
Visibility: 16 km
Cloud details: Overcast 427 m
2019/11/14 09:35 KE16 140935Z AUTO 13006KT 10SM OVC014 12/10 A3005 RMK AO2
 
KWVI - Watsonville, California, USA
Distance from station: SSE 44km
Updated: 21/01/2020 12:53
Overcast
Overcast
 Wind from WSW
Wind: WSW 9 km/h
Temperature: 14°C
Dew Point: 9°C
Humidity: 72%
Barometer: 1021.3 hPa
Clouds: Overcast
Visibility: 16 km
Cloud details: Partly cloudy 945 m
Overcast 1402 m
2020/01/21 20:53 KWVI 212053Z AUTO 24005KT 10SM SCT031 OVC046 14/09 A3016 RMK AO2 SLP212 T01440089 58010
KHAF - Half Moon Bay, California, USA
Distance from station: WNW 50km
Updated: 21/01/2020 13:40
Overcast
Overcast
 Wind from SSE
Wind: SSE 19 km/h, Gust: 33 km/h
Temperature: 13°C
Dew Point: 10°C
Humidity: 82%
Barometer: 1019.6 hPa
Clouds: Overcast
Visibility: 14 km
Cloud details: Overcast 518 m
2020/01/21 21:40 KHAF 212140Z AUTO 15010G18KT 9SM OVC017 13/10 A3011 RMK AO2
 
KHWD - Hayward, California, USA
Distance from station: N 44km
Updated: 21/01/2020 12:54
Overcast
Overcast
 Wind from S
Wind: S 19 km/h
Temperature: 14°C
Dew Point: 8°C
Humidity: 67%
Barometer: 1019.6 hPa
Clouds: Overcast
Visibility: 16 km
Cloud details: Overcast 853 m
2020/01/21 20:54 KHWD 212054Z 19010KT 10SM OVC028 14/08 A3011 RMK AO2 SLP205 T01440083 58003
KLVK - Livermore, California, USA
Distance from station: NNE 51km
Updated: 21/01/2020 12:53
Overcast
Overcast
 Wind from SW
Wind: SW 17 km/h
Temperature: 15°C
Dew Point: 8°C
Humidity: 63%
Barometer: 1019.3 hPa
Clouds: Overcast
Visibility: 16 km
Cloud details: Partly cloudy 1158 m
Mostly cloudy 1372 m
Overcast 2896 m
2020/01/21 20:53 KLVK 212053Z 22009KT 10SM SCT038 BKN045 OVC095 15/08 A3010 RMK AO2 SLP191 T01500083 58006